Time;durP1;ratioP1;P1;durP2;ratioP2;P2;SDS_P1;SDS_P2;PMS_P1;PMS_P2;Temp;Humidity;BMP_temperature;BMP_pressure;BME280_temperature;BME280_humidity;BME280_pressure;Samples;Min_cycle;Max_cycle;Signal;HPM_P1;HPM_P2
2022/04/13 00:01:52;;;;;;;7.15;3.72;;;;;;;;;;4994792;28;20022;-39
2022/04/13 00:04:18;;;;;;;5.90;3.15;;;;;;;;;;4994410;28;20062;-39
2022/04/13 00:06:44;;;;;;;7.07;3.90;;;;;;;;;;4994628;28;20057;-39
2022/04/13 00:09:12;;;;;;;7.25;3.58;;;;;;;;;;4994653;28;20065;-39
2022/04/13 00:11:39;;;;;;;6.22;3.22;;;;;;;;;;4994240;28;20077;-39
2022/04/13 00:14:05;;;;;;;6.43;2.95;;;;;;;;;;4994549;28;20084;-39
2022/04/13 00:16:30;;;;;;;4.20;3.00;;;;;;;;;;4994118;28;20022;-38
2022/04/13 00:18:56;;;;;;;5.35;3.03;;;;;;;;;;4994187;28;20061;-40
2022/04/13 00:21:21;;;;;;;8.35;3.03;;;;;;;;;;4994375;28;20030;-38
2022/04/13 00:23:47;;;;;;;5.22;2.67;;;;;;;;;;4994268;28;20034;-39
2022/04/13 00:26:12;;;;;;;7.35;3.38;;;;;;;;;;4993953;28;20073;-39
2022/04/13 00:28:38;;;;;;;5.15;3.55;;;;;;;;;;4994265;28;20057;-38
2022/04/13 00:31:03;;;;;;;7.22;3.75;;;;;;;;;;4994115;28;20486;-41
2022/04/13 00:33:29;;;;;;;6.80;4.07;;;;;;;;;;4994153;28;20463;-39
2022/04/13 00:35:55;;;;;;;6.40;3.95;;;;;;;;;;4994132;28;20105;-39
2022/04/13 00:38:22;;;;;;;5.97;3.92;;;;;;;;;;4993777;28;20025;-39
2022/04/13 00:40:48;;;;;;;5.18;2.97;;;;;;;;;;4993906;28;20411;-39
2022/04/13 00:43:14;;;;;;;6.32;3.95;;;;;;;;;;4993227;28;20030;-39
2022/04/13 00:45:44;;;;;;;6.28;3.35;;;;;;;;;;4993891;28;20026;-39
2022/04/13 00:48:10;;;;;;;3.70;2.95;;;;;;;;;;4993929;28;20029;-39
2022/04/13 00:50:36;;;;;;;5.82;4.10;;;;;;;;;;4993604;28;20030;-38
2022/04/13 00:53:03;;;;;;;8.55;4.15;;;;;;;;;;4993524;28;20113;-39
2022/04/13 00:55:31;;;;;;;9.85;4.13;;;;;;;;;;5000811;28;20045;-39
2022/04/13 00:57:59;;;;;;;7.70;3.80;;;;;;;;;;5013030;28;20496;-39
2022/04/13 01:00:25;;;;;;;11.48;4.43;;;;;;;;;;5013016;28;20033;-39
2022/04/13 01:02:52;;;;;;;9.43;4.65;;;;;;;;;;5012939;28;20022;-39
2022/04/13 01:05:20;;;;;;;10.00;3.58;;;;;;;;;;5013129;28;20057;-39
2022/04/13 01:07:46;;;;;;;6.20;3.42;;;;;;;;;;5012873;28;20493;-39
2022/04/13 01:10:12;;;;;;;6.70;3.30;;;;;;;;;;5013085;28;20105;-39
2022/04/13 01:12:38;;;;;;;6.30;3.30;;;;;;;;;;5012845;28;20509;-39
2022/04/13 01:15:04;;;;;;;7.00;4.22;;;;;;;;;;5013057;28;20114;-39
2022/04/13 01:17:30;;;;;;;5.80;3.00;;;;;;;;;;5012686;28;20105;-39
2022/04/13 01:19:56;;;;;;;8.15;4.18;;;;;;;;;;5012773;28;20494;-39
2022/04/13 01:22:23;;;;;;;6.63;3.22;;;;;;;;;;5012734;28;20030;-39
2022/04/13 01:24:49;;;;;;;10.98;4.07;;;;;;;;;;5012618;28;20065;-39
2022/04/13 01:27:15;;;;;;;7.82;4.20;;;;;;;;;;5012869;28;20057;-39
2022/04/13 01:29:42;;;;;;;6.40;3.75;;;;;;;;;;5012555;28;20534;-40
2022/04/13 01:32:10;;;;;;;10.77;3.95;;;;;;;;;;5012920;28;20103;-39
2022/04/13 01:34:36;;;;;;;8.55;3.67;;;;;;;;;;5012561;28;20466;-41
2022/04/13 01:37:02;;;;;;;6.68;3.97;;;;;;;;;;5012545;28;20033;-38
2022/04/13 01:39:28;;;;;;;6.75;4.30;;;;;;;;;;5012767;28;20022;-39
2022/04/13 01:41:53;;;;;;;8.77;4.18;;;;;;;;;;5012478;28;20442;-39
2022/04/13 01:44:18;;;;;;;10.13;4.32;;;;;;;;;;5012409;28;20088;-39
2022/04/13 01:46:44;;;;;;;8.77;3.78;;;;;;;;;;5012463;28;20026;-39
2022/04/13 01:49:09;;;;;;;5.05;3.75;;;;;;;;;;5012398;28;20041;-39
2022/04/13 01:51:35;;;;;;;6.70;3.78;;;;;;;;;;5012633;28;20025;-39
2022/04/13 01:54:00;;;;;;;7.90;4.35;;;;;;;;;;5014196;28;20434;-39
2022/04/13 01:56:26;;;;;;;8.05;4.00;;;;;;;;;;5016205;28;20050;-39
2022/04/13 01:58:51;;;;;;;7.05;3.80;;;;;;;;;;5016355;28;20462;-39
2022/04/13 02:01:17;;;;;;;5.60;3.38;;;;;;;;;;5016554;28;20025;-39
2022/04/13 02:03:43;;;;;;;7.95;4.82;;;;;;;;;;5016424;28;20095;-39
2022/04/13 02:06:09;;;;;;;5.60;3.97;;;;;;;;;;5016527;28;20038;-39
2022/04/13 02:08:35;;;;;;;4.43;3.50;;;;;;;;;;5016121;28;20038;-39
2022/04/13 02:11:02;;;;;;;3.50;2.78;;;;;;;;;;5016378;28;20096;-39
2022/04/13 02:13:27;;;;;;;4.28;3.03;;;;;;;;;;5016010;28;20462;-39
2022/04/13 02:15:53;;;;;;;4.82;3.25;;;;;;;;;;5016081;28;20026;-39
2022/04/13 02:18:18;;;;;;;3.05;2.72;;;;;;;;;;5016044;28;20029;-40
2022/04/13 02:20:43;;;;;;;3.58;2.78;;;;;;;;;;5015901;28;20030;-39
2022/04/13 02:23:09;;;;;;;7.85;3.50;;;;;;;;;;5015768;28;20057;-41
2022/04/13 02:25:35;;;;;;;7.35;3.85;;;;;;;;;;5015897;28;20470;-39
2022/04/13 02:28:05;;;;;;;5.97;4.13;;;;;;;;;;5016032;28;20030;-39
2022/04/13 02:30:31;;;;;;;7.82;4.68;;;;;;;;;;5016091;28;20033;-39
2022/04/13 02:32:57;;;;;;;9.90;3.45;;;;;;;;;;5015705;28;20077;-39
2022/04/13 02:35:23;;;;;;;2.92;1.98;;;;;;;;;;5015945;28;20034;-39
2022/04/13 02:37:48;;;;;;;3.80;1.70;;;;;;;;;;5015928;28;20038;-39
2022/04/13 02:40:13;;;;;;;2.65;2.45;;;;;;;;;;5015650;28;20507;-38
2022/04/13 02:42:39;;;;;;;5.00;2.30;;;;;;;;;;5015771;28;20430;-38
2022/04/13 02:45:05;;;;;;;2.75;1.67;;;;;;;;;;5015410;28;20033;-39
2022/04/13 02:47:32;;;;;;;4.30;2.42;;;;;;;;;;5015625;28;20026;-39
2022/04/13 02:49:57;;;;;;;2.17;1.95;;;;;;;;;;5015744;28;20281;-39
2022/04/13 02:52:25;;;;;;;4.80;3.08;;;;;;;;;;5015363;28;20339;-39
2022/04/13 02:54:51;;;;;;;6.20;3.75;;;;;;;;;;5015064;28;20056;-39
2022/04/13 02:57:17;;;;;;;5.82;3.58;;;;;;;;;;5015517;28;20033;-39
2022/04/13 02:59:46;;;;;;;12.00;3.95;;;;;;;;;;5015552;28;20084;-39
2022/04/13 03:02:14;;;;;;;7.70;4.28;;;;;;;;;;5015151;28;20025;-39
2022/04/13 03:04:42;;;;;;;9.88;4.60;;;;;;;;;;5014639;28;20371;-39
2022/04/13 03:07:10;;;;;;;6.15;3.95;;;;;;;;;;5015350;28;20406;-39
2022/04/13 03:09:36;;;;;;;8.65;4.10;;;;;;;;;;5015242;28;20042;-39
2022/04/13 03:12:01;;;;;;;9.95;3.80;;;;;;;;;;5015086;28;20383;-39
2022/04/13 03:14:27;;;;;;;6.03;3.88;;;;;;;;;;5015245;28;20026;-39
2022/04/13 03:16:52;;;;;;;10.30;4.22;;;;;;;;;;5015223;28;20022;-40
2022/04/13 03:19:18;;;;;;;10.10;4.55;;;;;;;;;;5014838;28;20344;-39
2022/04/13 03:21:43;;;;;;;8.13;4.78;;;;;;;;;;5014798;28;20474;-40
2022/04/13 03:24:09;;;;;;;13.00;5.07;;;;;;;;;;5015052;28;20038;-39
2022/04/13 03:26:34;;;;;;;8.93;5.20;;;;;;;;;;5014993;28;20389;-39
2022/04/13 03:28:59;;;;;;;8.43;5.20;;;;;;;;;;5014984;28;20034;-40
2022/04/13 03:31:25;;;;;;;12.13;4.70;;;;;;;;;;5014661;28;20022;-39
2022/04/13 03:33:50;;;;;;;5.75;4.60;;;;;;;;;;5014600;28;20371;-40
2022/04/13 03:36:17;;;;;;;9.07;4.38;;;;;;;;;;5014568;28;20033;-39
2022/04/13 03:38:42;;;;;;;7.70;4.40;;;;;;;;;;5014801;28;20026;-39
2022/04/13 03:41:08;;;;;;;7.88;4.68;;;;;;;;;;5014644;28;20087;-39
2022/04/13 03:43:33;;;;;;;10.98;8.48;;;;;;;;;;5014411;28;20109;-39
2022/04/13 03:45:58;;;;;;;10.68;6.47;;;;;;;;;;5014645;28;20176;-39
2022/04/13 03:48:24;;;;;;;14.15;6.57;;;;;;;;;;5014252;28;20123;-39
2022/04/13 03:50:50;;;;;;;12.32;5.22;;;;;;;;;;5014254;28;20033;-39
2022/04/13 03:53:16;;;;;;;7.97;4.63;;;;;;;;;;5014167;28;20064;-39
2022/04/13 03:55:41;;;;;;;7.03;4.55;;;;;;;;;;5014099;28;20045;-39
2022/04/13 03:58:06;;;;;;;7.53;4.22;;;;;;;;;;5014420;28;20030;-38
2022/04/13 04:00:32;;;;;;;7.20;4.30;;;;;;;;;;4996524;28;20030;-39
2022/04/13 04:02:57;;;;;;;10.80;4.15;;;;;;;;;;5013933;28;20026;-39
2022/04/13 04:05:23;;;;;;;7.93;5.15;;;;;;;;;;5013890;28;20034;-43
2022/04/13 04:07:49;;;;;;;28.63;6.10;;;;;;;;;;5014198;28;20108;-46
2022/04/13 04:10:15;;;;;;;8.68;4.10;;;;;;;;;;5013864;28;20041;-42
2022/04/13 04:12:41;;;;;;;9.82;4.35;;;;;;;;;;5014145;28;20014;-44
2022/04/13 04:15:09;;;;;;;6.90;3.58;;;;;;;;;;5013688;28;20116;-52
2022/04/13 04:17:35;;;;;;;4.45;3.55;;;;;;;;;;5013190;28;20030;-46
2022/04/13 04:20:02;;;;;;;5.05;2.95;;;;;;;;;;5013863;28;20076;-43
2022/04/13 04:22:29;;;;;;;4.47;3.40;;;;;;;;;;5013732;28;20109;-46
2022/04/13 04:24:54;;;;;;;8.75;5.38;;;;;;;;;;5013387;28;20083;-44
2022/04/13 04:27:20;;;;;;;8.18;3.65;;;;;;;;;;5013419;28;20026;-46
2022/04/13 04:29:46;;;;;;;5.43;3.13;;;;;;;;;;5013598;28;20038;-44
2022/04/13 04:32:11;;;;;;;3.28;2.38;;;;;;;;;;5013521;28;20026;-46
2022/04/13 04:34:37;;;;;;;4.63;3.33;;;;;;;;;;5013365;28;20044;-43
2022/04/13 04:37:03;;;;;;;3.63;2.42;;;;;;;;;;5013613;28;20029;-43
2022/04/13 04:39:28;;;;;;;2.50;1.98;;;;;;;;;;5013516;28;20348;-40
2022/04/13 04:41:54;;;;;;;4.20;3.30;;;;;;;;;;5013584;28;20026;-45
2022/04/13 04:44:20;;;;;;;5.07;2.75;;;;;;;;;;5013454;28;20036;-39
2022/04/13 04:46:45;;;;;;;3.67;3.03;;;;;;;;;;5013472;28;20363;-42
2022/04/13 04:49:11;;;;;;;6.00;3.42;;;;;;;;;;5013180;28;20026;-47
2022/04/13 04:51:36;;;;;;;12.38;2.75;;;;;;;;;;5013475;28;20024;-42
2022/04/13 04:54:03;;;;;;;4.40;2.97;;;;;;;;;;5013351;28;20032;-46
2022/04/13 04:56:29;;;;;;;7.03;4.85;;;;;;;;;;5012964;28;20038;-48
2022/04/13 04:58:55;;;;;;;13.65;5.15;;;;;;;;;;5013108;28;20382;-42
2022/04/13 05:01:21;;;;;;;7.32;5.03;;;;;;;;;;5012906;28;20036;-49
2022/04/13 05:03:48;;;;;;;8.00;4.40;;;;;;;;;;5013156;28;20034;-44
2022/04/13 05:06:25;;;;;;;7.50;4.57;;;;;;;;;;5012386;28;20049;-40
2022/04/13 05:08:55;;;;;;;6.68;4.80;;;;;;;;;;5012844;28;20109;-41
2022/04/13 05:11:21;;;;;;;6.90;4.57;;;;;;;;;;5013041;28;20021;-44
2022/04/13 05:13:47;;;;;;;6.75;4.63;;;;;;;;;;5013000;28;20030;-45
2022/04/13 05:16:14;;;;;;;6.75;4.70;;;;;;;;;;5011377;28;20385;-44
2022/04/13 05:18:41;;;;;;;6.35;4.28;;;;;;;;;;5012625;28;20033;-47
2022/04/13 05:21:06;;;;;;;8.95;5.10;;;;;;;;;;5012478;28;20037;-44
2022/04/13 05:23:32;;;;;;;6.15;4.18;;;;;;;;;;5012481;28;20030;-44
2022/04/13 05:25:57;;;;;;;8.20;4.93;;;;;;;;;;4995288;28;20029;-48
2022/04/13 05:28:23;;;;;;;7.47;4.97;;;;;;;;;;5012400;28;20040;-46
2022/04/13 05:30:48;;;;;;;7.45;5.00;;;;;;;;;;5012803;28;20033;-39
2022/04/13 05:33:14;;;;;;;4.80;3.17;;;;;;;;;;5012733;28;20033;-38
2022/04/13 05:35:39;;;;;;;10.68;5.72;;;;;;;;;;5012763;28;20490;-40
2022/04/13 05:38:06;;;;;;;7.57;3.00;;;;;;;;;;5012277;28;20033;-39
2022/04/13 05:40:32;;;;;;;4.07;2.30;;;;;;;;;;5011143;28;20026;-40
2022/04/13 05:42:57;;;;;;;4.45;2.33;;;;;;;;;;5010627;28;20022;-43
2022/04/13 05:45:24;;;;;;;7.32;3.80;;;;;;;;;;5012033;28;20041;-39
2022/04/13 05:47:50;;;;;;;3.60;2.60;;;;;;;;;;5012199;28;20033;-48
2022/04/13 05:50:16;;;;;;;1.67;1.58;;;;;;;;;;5012315;28;20030;-45
2022/04/13 05:52:43;;;;;;;4.32;2.95;;;;;;;;;;5011991;28;20030;-43
2022/04/13 05:55:09;;;;;;;3.53;2.08;;;;;;;;;;5011991;28;20073;-40
2022/04/13 05:57:34;;;;;;;10.02;5.68;;;;;;;;;;5012288;28;20026;-43
2022/04/13 06:00:00;;;;;;;13.15;6.35;;;;;;;;;;4994524;28;20030;-52
2022/04/13 06:02:26;;;;;;;17.23;9.15;;;;;;;;;;5012239;28;20033;-40
2022/04/13 06:04:51;;;;;;;31.95;9.25;;;;;;;;;;5012126;28;20022;-52
2022/04/13 06:07:17;;;;;;;41.03;16.55;;;;;;;;;;5012259;28;20065;-50
2022/04/13 06:09:42;;;;;;;36.65;16.08;;;;;;;;;;5012145;28;20105;-44
2022/04/13 06:12:08;;;;;;;22.65;10.70;;;;;;;;;;5012409;28;20034;-41
2022/04/13 06:14:34;;;;;;;7.90;4.65;;;;;;;;;;5012165;28;20741;-47
2022/04/13 06:16:59;;;;;;;8.18;5.35;;;;;;;;;;5012235;28;20018;-45
2022/04/13 06:19:25;;;;;;;3.92;2.50;;;;;;;;;;5012335;28;20053;-43
2022/04/13 06:21:50;;;;;;;1.50;1.40;;;;;;;;;;5012156;28;20116;-40
2022/04/13 06:24:16;;;;;;;4.40;3.00;;;;;;;;;;5012240;28;20034;-40
2022/04/13 06:26:42;;;;;;;7.28;4.50;;;;;;;;;;5011970;28;20419;-40
2022/04/13 06:29:08;;;;;;;4.05;2.53;;;;;;;;;;5011532;28;20041;-46
2022/04/13 06:31:33;;;;;;;5.22;4.15;;;;;;;;;;5008754;28;20434;-42
2022/04/13 06:33:59;;;;;;;6.85;2.65;;;;;;;;;;5011321;28;20513;-40
2022/04/13 06:36:25;;;;;;;3.50;2.55;;;;;;;;;;5012259;28;20021;-46
2022/04/13 06:38:50;;;;;;;4.70;3.15;;;;;;;;;;5012413;28;20522;-40
2022/04/13 06:41:16;;;;;;;6.00;2.85;;;;;;;;;;5015351;28;20050;-41
2022/04/13 06:43:42;;;;;;;8.60;4.43;;;;;;;;;;5015401;28;20018;-46
2022/04/13 06:46:09;;;;;;;3.88;2.20;;;;;;;;;;5015592;28;20026;-42
2022/04/13 06:48:35;;;;;;;2.83;2.08;;;;;;;;;;5015715;28;20148;-41
2022/04/13 06:51:00;;;;;;;6.80;2.60;;;;;;;;;;5015406;28;20022;-41
2022/04/13 06:53:26;;;;;;;2.40;2.20;;;;;;;;;;5015424;28;20486;-41
2022/04/13 06:55:52;;;;;;;4.45;2.53;;;;;;;;;;5014972;28;20514;-40
2022/04/13 06:58:21;;;;;;;3.35;2.90;;;;;;;;;;5015160;28;20049;-45
2022/04/13 07:00:47;;;;;;;9.32;4.07;;;;;;;;;;5015121;28;20494;-43
2022/04/13 07:03:12;;;;;;;1.40;1.30;;;;;;;;;;5014946;28;20387;-41
2022/04/13 07:05:38;;;;;;;6.80;4.20;;;;;;;;;;5015322;28;20030;-40
2022/04/13 07:08:04;;;;;;;10.15;2.88;;;;;;;;;;5015312;28;20441;-43
2022/04/13 07:10:34;;;;;;;5.88;3.10;;;;;;;;;;5014468;28;20037;-42
2022/04/13 07:13:00;;;;;;;4.80;2.92;;;;;;;;;;4997468;28;20449;-43
2022/04/13 07:15:27;;;;;;;5.03;3.22;;;;;;;;;;5014706;28;20041;-42
2022/04/13 07:17:53;;;;;;;2.85;2.20;;;;;;;;;;5014647;28;20025;-46
2022/04/13 07:20:18;;;;;;;4.72;2.83;;;;;;;;;;5012627;28;20516;-41
2022/04/13 07:22:48;;;;;;;3.75;3.20;;;;;;;;;;5013380;28;20046;-41
2022/04/13 07:25:15;;;;;;;4.30;2.63;;;;;;;;;;5013157;28;20080;-51
2022/04/13 07:27:41;;;;;;;4.78;3.55;;;;;;;;;;5012748;28;20266;-41
2022/04/13 07:30:07;;;;;;;4.00;3.25;;;;;;;;;;5013038;28;20034;-45
2022/04/13 07:32:33;;;;;;;5.65;2.45;;;;;;;;;;5013366;28;20112;-44
2022/04/13 07:35:04;;;;;;;3.95;2.67;;;;;;;;;;5013207;28;20101;-45
2022/04/13 07:37:31;;;;;;;2.85;2.50;;;;;;;;;;5012094;28;20026;-45
2022/04/13 07:39:56;;;;;;;5.15;3.42;;;;;;;;;;5013267;28;20109;-47
2022/04/13 07:42:23;;;;;;;3.55;3.25;;;;;;;;;;5012764;28;20110;-45
2022/04/13 07:44:50;;;;;;;3.58;3.10;;;;;;;;;;5012977;28;20084;-46
2022/04/13 07:47:15;;;;;;;5.88;3.53;;;;;;;;;;5012880;28;20069;-46
2022/04/13 07:49:41;;;;;;;4.13;2.55;;;;;;;;;;5012721;28;20064;-43
2022/04/13 07:52:10;;;;;;;4.10;3.03;;;;;;;;;;5011435;28;20490;-46
2022/04/13 07:54:36;;;;;;;3.70;2.70;;;;;;;;;;5012482;28;20034;-42
2022/04/13 07:57:02;;;;;;;3.28;2.67;;;;;;;;;;5012300;28;20053;-42
2022/04/13 07:59:27;;;;;;;4.88;2.70;;;;;;;;;;5012627;28;20505;-41
2022/04/13 08:01:53;;;;;;;4.07;2.83;;;;;;;;;;5009293;28;20037;-40
2022/04/13 08:04:19;;;;;;;3.67;2.65;;;;;;;;;;5004160;28;20843;-46
2022/04/13 08:06:44;;;;;;;4.07;2.80;;;;;;;;;;5008893;28;20021;-41
2022/04/13 08:09:10;;;;;;;4.07;2.35;;;;;;;;;;5012383;28;20390;-40
2022/04/13 08:11:35;;;;;;;3.33;2.65;;;;;;;;;;5011502;28;20470;-49
2022/04/13 08:14:01;;;;;;;2.25;1.58;;;;;;;;;;5012494;28;20509;-41
2022/04/13 08:16:26;;;;;;;2.88;2.22;;;;;;;;;;5012191;28;20680;-41
2022/04/13 08:18:52;;;;;;;3.05;2.08;;;;;;;;;;5012134;28;20037;-42
2022/04/13 08:21:17;;;;;;;3.22;2.05;;;;;;;;;;5012194;28;20040;-50
2022/04/13 08:23:42;;;;;;;3.83;2.20;;;;;;;;;;5012150;28;20034;-44
2022/04/13 08:26:08;;;;;;;3.58;2.10;;;;;;;;;;4994452;28;20554;-45
2022/04/13 08:28:33;;;;;;;2.85;2.13;;;;;;;;;;5012185;28;20123;-43
2022/04/13 08:31:02;;;;;;;3.90;2.40;;;;;;;;;;5012206;28;20046;-44
2022/04/13 08:33:27;;;;;;;3.90;2.10;;;;;;;;;;5010943;28;20033;-47
2022/04/13 08:35:53;;;;;;;3.38;2.38;;;;;;;;;;5011884;28;20022;-46
2022/04/13 08:38:18;;;;;;;4.10;3.38;;;;;;;;;;5011865;28;20022;-50
2022/04/13 08:40:54;;;;;;;3.63;2.70;;;;;;;;;;5011694;28;20029;-48
2022/04/13 08:43:45;;;;;;;3.17;2.03;;;;;;;;;;5011911;28;20025;-42
2022/04/13 08:46:15;;;;;;;2.35;2.15;;;;;;;;;;5011149;28;20046;-41
2022/04/13 08:48:45;;;;;;;3.05;2.65;;;;;;;;;;5011681;28;20053;-44
2022/04/13 08:51:15;;;;;;;3.15;2.67;;;;;;;;;;5011563;28;20030;-43
2022/04/13 08:53:44;;;;;;;6.57;2.17;;;;;;;;;;5010551;28;20037;-44
2022/04/13 08:56:14;;;;;;;3.22;2.60;;;;;;;;;;5011014;28;20064;-47
2022/04/13 08:58:49;;;;;;;5.93;3.05;;;;;;;;;;5011264;28;20037;-40
2022/04/13 09:01:22;;;;;;;3.30;2.50;;;;;;;;;;5011061;28;20033;-40
2022/04/13 09:03:52;;;;;;;4.72;2.30;;;;;;;;;;5010698;28;20026;-43
2022/04/13 09:06:20;;;;;;;4.70;2.28;;;;;;;;;;5011594;28;20033;-40
2022/04/13 09:08:53;;;;;;;1.75;1.48;;;;;;;;;;5011035;28;20030;-46
2022/04/13 09:11:21;;;;;;;2.17;2.00;;;;;;;;;;5011252;28;20370;-47
2022/04/13 09:13:47;;;;;;;2.97;2.50;;;;;;;;;;5011421;28;20087;-40
2022/04/13 09:16:13;;;;;;;4.55;2.70;;;;;;;;;;5011357;28;20449;-44
2022/04/13 09:18:40;;;;;;;4.70;2.83;;;;;;;;;;5010472;28;20022;-45
2022/04/13 09:21:05;;;;;;;6.75;4.18;;;;;;;;;;5010326;28;20042;-48
2022/04/13 09:23:31;;;;;;;5.00;3.15;;;;;;;;;;5010912;28;20033;-44
2022/04/13 09:25:58;;;;;;;3.95;2.92;;;;;;;;;;5010989;28;20033;-43
2022/04/13 09:28:25;;;;;;;3.25;2.17;;;;;;;;;;5010483;28;20034;-42
2022/04/13 09:30:52;;;;;;;4.28;2.70;;;;;;;;;;5010773;28;20494;-46
2022/04/13 09:33:18;;;;;;;2.75;2.40;;;;;;;;;;5009713;28;20080;-40
2022/04/13 09:35:43;;;;;;;5.43;3.08;;;;;;;;;;5010158;28;20049;-40
2022/04/13 09:38:09;;;;;;;9.25;3.42;;;;;;;;;;5010512;28;20037;-49
2022/04/13 09:40:41;;;;;;;2.80;2.40;;;;;;;;;;5011045;28;20041;-41
2022/04/13 09:43:10;;;;;;;4.18;3.35;;;;;;;;;;5010675;28;20026;-41
2022/04/13 09:45:39;;;;;;;3.58;2.40;;;;;;;;;;5010667;28;20030;-40
2022/04/13 09:48:06;;;;;;;6.93;3.55;;;;;;;;;;5010649;28;20026;-40
2022/04/13 09:50:32;;;;;;;3.45;2.35;;;;;;;;;;5009823;28;20022;-40
2022/04/13 09:53:03;;;;;;;5.30;3.05;;;;;;;;;;5010934;28;20045;-41
2022/04/13 09:55:29;;;;;;;3.00;2.08;;;;;;;;;;5010724;28;20054;-43
2022/04/13 09:58:12;;;;;;;8.00;2.65;;;;;;;;;;5009769;28;20579;-41
2022/04/13 10:00:38;;;;;;;16.70;3.95;;;;;;;;;;5011095;28;20029;-43
2022/04/13 10:03:10;;;;;;;5.15;2.85;;;;;;;;;;5010379;28;20030;-42
2022/04/13 10:05:37;;;;;;;2.85;2.00;;;;;;;;;;5010516;28;20091;-41
2022/04/13 10:08:10;;;;;;;3.53;2.50;;;;;;;;;;5010685;28;20745;-49
2022/04/13 10:10:43;;;;;;;3.33;2.45;;;;;;;;;;5010659;28;20057;-49
2022/04/13 10:13:09;;;;;;;4.50;3.22;;;;;;;;;;5010759;28;20030;-45
2022/04/13 10:15:35;;;;;;;4.38;2.92;;;;;;;;;;5012838;28;20542;-45
2022/04/13 10:18:01;;;;;;;5.05;3.72;;;;;;;;;;5014347;28;20087;-50
2022/04/13 10:20:46;;;;;;;3.95;3.00;;;;;;;;;;5014543;28;20080;-42
2022/04/13 10:23:12;;;;;;;4.05;2.67;;;;;;;;;;5014420;28;20033;-42
2022/04/13 10:25:37;;;;;;;8.07;2.72;;;;;;;;;;5014365;28;20040;-51
2022/04/13 10:28:03;;;;;;;4.30;3.13;;;;;;;;;;5013703;28;20026;-44
2022/04/13 10:30:31;;;;;;;3.95;2.95;;;;;;;;;;5014195;28;20038;-41
2022/04/13 10:33:11;;;;;;;3.60;3.00;;;;;;;;;;5014464;28;20434;-42
2022/04/13 10:35:44;;;;;;;3.42;2.75;;;;;;;;;;5014122;28;20550;-41
2022/04/13 10:38:12;;;;;;;6.13;3.70;;;;;;;;;;5013966;28;20128;-42
2022/04/13 10:40:40;;;;;;;4.30;2.90;;;;;;;;;;5013981;28;20034;-44
2022/04/13 10:43:11;;;;;;;3.60;3.15;;;;;;;;;;5014157;28;20026;-43
2022/04/13 10:45:46;;;;;;;3.53;3.10;;;;;;;;;;5014292;28;20030;-43
2022/04/13 10:48:16;;;;;;;4.82;3.10;;;;;;;;;;5013665;28;20034;-41
2022/04/13 10:51:00;;;;;;;;;;;;;;;;;;5014068;28;20025;-45
2022/04/13 10:53:35;;;;;;;6.93;3.50;;;;;;;;;;5013863;28;19925;-42
2022/04/13 10:56:06;;;;;;;6.38;3.22;;;;;;;;;;5013801;28;20048;-40
2022/04/13 10:58:47;;;;;;;4.05;2.70;;;;;;;;;;5013964;28;20033;-40
2022/04/13 11:01:15;;;;;;;4.20;3.35;;;;;;;;;;5014036;28;20108;-40
2022/04/13 11:03:41;;;;;;;3.42;2.38;;;;;;;;;;5013433;28;20118;-40
2022/04/13 11:06:09;;;;;;;7.18;4.03;;;;;;;;;;5013846;28;20044;-40
2022/04/13 11:08:37;;;;;;;6.43;3.58;;;;;;;;;;5013338;28;20033;-41
2022/04/13 11:11:04;;;;;;;5.25;2.92;;;;;;;;;;5013695;28;20443;-40
2022/04/13 11:13:33;;;;;;;4.13;3.45;;;;;;;;;;5013429;28;20058;-40
2022/04/13 11:16:17;;;;;;;6.20;3.50;;;;;;;;;;5013364;28;20030;-39
2022/04/13 11:19:17;;;;;;;5.35;3.00;;;;;;;;;;5013059;28;20037;-53
2022/04/13 11:21:51;;;;;;;3.65;2.58;;;;;;;;;;5013346;28;20037;-48
2022/04/13 11:24:36;;;;;;;5.45;2.65;;;;;;;;;;5012928;28;20060;-40
2022/04/13 11:27:03;;;;;;;5.25;3.40;;;;;;;;;;5012805;28;20038;-40
2022/04/13 11:29:33;;;;;;;3.05;2.50;;;;;;;;;;5012951;28;20037;-46
2022/04/13 11:32:04;;;;;;;4.18;3.33;;;;;;;;;;5013225;28;20026;-45
2022/04/13 11:34:30;;;;;;;5.20;3.17;;;;;;;;;;5012891;28;20026;-42
2022/04/13 11:37:02;;;;;;;5.63;2.85;;;;;;;;;;5012407;28;20088;-45
2022/04/13 11:39:57;;;;;;;3.97;2.83;;;;;;;;;;5012904;28;20814;-40
2022/04/13 11:42:24;;;;;;;5.35;3.67;;;;;;;;;;5012303;28;20117;-45
2022/04/13 11:45:06;;;;;;;4.32;1.83;;;;;;;;;;5012295;28;20157;-50
2022/04/13 11:47:40;;;;;;;3.25;2.95;;;;;;;;;;5012541;28;20037;-49
2022/04/13 11:50:12;;;;;;;7.55;3.30;;;;;;;;;;5013007;28;20386;-41
2022/04/13 11:52:50;;;;;;;5.35;3.78;;;;;;;;;;5012665;28;20102;-43
2022/04/13 11:55:22;;;;;;;5.15;3.40;;;;;;;;;;5012537;28;20081;-42
2022/04/13 11:58:02;;;;;;;3.67;2.75;;;;;;;;;;5012749;28;20041;-40
2022/04/13 12:00:42;;;;;;;;;;;;;;;;;;5012893;28;20036;-40
2022/04/13 12:03:26;;;;;;;3.85;2.80;;;;;;;;;;5012666;28;20004;-44
2022/04/13 12:05:55;;;;;;;5.18;3.42;;;;;;;;;;5012718;28;20394;-42
2022/04/13 12:08:24;;;;;;;3.25;2.92;;;;;;;;;;5012196;28;20088;-42
2022/04/13 12:11:01;;;;;;;4.28;2.78;;;;;;;;;;5012119;28;20053;-48
2022/04/13 12:13:32;;;;;;;2.88;2.60;;;;;;;;;;5012303;28;20491;-50
2022/04/13 12:15:59;;;;;;;2.53;1.75;;;;;;;;;;5011299;28;20029;-52
2022/04/13 12:18:26;;;;;;;4.32;3.47;;;;;;;;;;5012422;28;20037;-52
2022/04/13 12:21:06;;;;;;;8.10;3.25;;;;;;;;;;5012254;28;20084;-52
2022/04/13 12:23:35;;;;;;;7.43;3.80;;;;;;;;;;5012115;28;20026;-47
2022/04/13 12:26:01;;;;;;;3.30;2.53;;;;;;;;;;5012008;28;20116;-50
2022/04/13 12:28:26;;;;;;;4.07;3.35;;;;;;;;;;5011972;28;20129;-49
2022/04/13 12:30:56;;;;;;;4.57;3.75;;;;;;;;;;5012188;28;20030;-51
2022/04/13 12:33:23;;;;;;;5.57;2.77;;;;;;;;;;5011304;28;20474;-43
2022/04/13 12:36:05;;;;;;;7.75;3.92;;;;;;;;;;5011853;28;20325;-41
2022/04/13 12:38:36;;;;;;;7.78;4.00;;;;;;;;;;5010767;28;20049;-45
2022/04/13 12:41:12;;;;;;;5.63;3.72;;;;;;;;;;5011312;28;20628;-42
2022/04/13 12:44:01;;;;;;;5.70;3.80;;;;;;;;;;5011847;28;20057;-50
2022/04/13 12:46:29;;;;;;;5.03;3.88;;;;;;;;;;5012131;28;20046;-47
2022/04/13 12:48:58;;;;;;;4.55;3.42;;;;;;;;;;5011630;28;20037;-41
2022/04/13 12:51:28;;;;;;;3.20;2.70;;;;;;;;;;5011806;28;20029;-48
2022/04/13 12:53:57;;;;;;;4.85;3.15;;;;;;;;;;5011289;28;20477;-43
2022/04/13 12:56:31;;;;;;;3.30;3.00;;;;;;;;;;5011040;28;20050;-47
2022/04/13 12:58:57;;;;;;;3.58;2.80;;;;;;;;;;5011729;28;20109;-49
2022/04/13 13:01:32;;;;;;;4.10;3.13;;;;;;;;;;5011304;28;20493;-40
2022/04/13 13:04:08;;;;;;;3.95;1.80;;;;;;;;;;5010945;28;20173;-45
2022/04/13 13:06:34;;;;;;;5.82;3.28;;;;;;;;;;5011466;28;20084;-40
2022/04/13 13:09:03;;;;;;;5.72;2.97;;;;;;;;;;5011403;28;20021;-42
2022/04/13 13:11:38;;;;;;;5.55;3.60;;;;;;;;;;4993498;28;20443;-49
2022/04/13 13:14:12;;;;;;;5.05;3.05;;;;;;;;;;5011592;28;20017;-41
2022/04/13 13:16:45;;;;;;;5.30;2.95;;;;;;;;;;5011125;28;20053;-43
2022/04/13 13:19:19;;;;;;;4.00;2.85;;;;;;;;;;5011182;28;20023;-47
2022/04/13 13:22:08;;;;;;;4.85;2.13;;;;;;;;;;5011229;28;20433;-39
2022/04/13 13:24:33;;;;;;;1.75;1.30;;;;;;;;;;5011207;28;20109;-45
2022/04/13 13:27:04;;;;;;;3.17;2.58;;;;;;;;;;5010281;28;20172;-49
2022/04/13 13:29:29;;;;;;;7.43;3.50;;;;;;;;;;5010548;28;20026;-41
2022/04/13 13:31:55;;;;;;;6.00;3.55;;;;;;;;;;5010373;28;20037;-51
2022/04/13 13:34:22;;;;;;;4.43;2.97;;;;;;;;;;5010898;28;20045;-48
2022/04/13 13:36:57;;;;;;;4.38;3.00;;;;;;;;;;5010880;28;20144;-46
2022/04/13 13:39:26;;;;;;;4.38;2.15;;;;;;;;;;5009203;28;20168;-46
2022/04/13 13:42:06;;;;;;;1.77;1.65;;;;;;;;;;5009867;28;20104;-50
2022/04/13 13:44:32;;;;;;;7.03;3.17;;;;;;;;;;5009344;28;20040;-49
2022/04/13 13:46:59;;;;;;;4.53;2.70;;;;;;;;;;5009663;28;20034;-46
2022/04/13 13:49:25;;;;;;;5.63;3.05;;;;;;;;;;5011934;28;20038;-47
2022/04/13 13:51:54;;;;;;;7.50;3.28;;;;;;;;;;5013678;28;20026;-49
2022/04/13 13:54:20;;;;;;;4.85;3.20;;;;;;;;;;5013286;28;20092;-45
2022/04/13 13:56:45;;;;;;;8.48;3.97;;;;;;;;;;5013574;28;20049;-40
2022/04/13 13:59:10;;;;;;;11.95;4.03;;;;;;;;;;5013394;28;20075;-45
2022/04/13 14:01:36;;;;;;;6.22;3.40;;;;;;;;;;5013230;28;20029;-43
2022/04/13 14:04:02;;;;;;;4.72;3.47;;;;;;;;;;5013330;28;20109;-41
2022/04/13 14:06:28;;;;;;;7.15;3.35;;;;;;;;;;5013546;28;20474;-45
2022/04/13 14:08:53;;;;;;;4.00;2.95;;;;;;;;;;5013419;28;20037;-40
2022/04/13 14:11:19;;;;;;;4.05;3.10;;;;;;;;;;5013113;28;20030;-50
2022/04/13 14:13:44;;;;;;;2.95;2.45;;;;;;;;;;5013025;28;20038;-43
2022/04/13 14:16:10;;;;;;;2.95;2.03;;;;;;;;;;5013073;28;20032;-53
2022/04/13 14:18:35;;;;;;;3.50;2.33;;;;;;;;;;5013059;28;20032;-43
2022/04/13 14:21:01;;;;;;;3.30;2.80;;;;;;;;;;5012800;28;20033;-49
2022/04/13 14:23:26;;;;;;;4.53;3.63;;;;;;;;;;5006685;28;20092;-40
2022/04/13 14:25:54;;;;;;;6.47;3.97;;;;;;;;;;4991473;28;20057;-51
2022/04/13 14:28:20;;;;;;;4.03;3.10;;;;;;;;;;5012719;28;20521;-46
2022/04/13 14:30:45;;;;;;;4.28;3.38;;;;;;;;;;5012932;28;20033;-48
2022/04/13 14:33:12;;;;;;;4.05;2.90;;;;;;;;;;5011886;28;20057;-49
2022/04/13 14:35:38;;;;;;;4.60;3.50;;;;;;;;;;4994913;28;20037;-54
2022/04/13 14:38:03;;;;;;;4.95;3.17;;;;;;;;;;5012702;28;20091;-51
2022/04/13 14:40:29;;;;;;;2.03;1.85;;;;;;;;;;5012785;28;20018;-53
2022/04/13 14:42:54;;;;;;;3.50;2.47;;;;;;;;;;5012376;28;20549;-41
2022/04/13 14:45:20;;;;;;;3.15;2.25;;;;;;;;;;5012385;28;20045;-40
2022/04/13 14:47:47;;;;;;;5.47;2.70;;;;;;;;;;4994870;28;20026;-44